Time;durP1;ratioP1;P1;durP2;ratioP2;P2;SDS_P1;SDS_P2;PMS_P1;PMS_P2;Temp;Humidity;BMP_temperature;BMP_pressure;BME280_temperature;BME280_humidity;BME280_pressure;Samples;Min_cycle;Max_cycle;Signal;HPM_P1;HPM_P2
2023/11/12 00:01:49;;;;;;;78.85;45.40;;;4.50;99.90;;;;;;5040745;28;20058;-77
2023/11/12 00:04:14;;;;;;;90.10;48.08;;;4.50;99.90;;;;;;4970208;28;20106;-77
2023/11/12 00:06:40;;;;;;;85.68;44.70;;;4.50;99.90;;;;;;5011415;28;20542;-82
2023/11/12 00:09:08;;;;;;;89.13;47.83;;;4.50;99.90;;;;;;4973272;28;20026;-83
2023/11/12 00:11:34;;;;;;;84.80;45.45;;;4.50;99.90;;;;;;5040959;28;20027;-82
2023/11/12 00:14:00;;;;;;;89.20;46.55;;;4.50;99.90;;;;;;5041415;28;20065;-77
2023/11/12 00:16:27;;;;;;;88.40;47.20;;;4.50;99.90;;;;;;4973738;28;20023;-78
2023/11/12 00:18:56;;;;;;;87.20;46.30;;;4.50;99.90;;;;;;5036728;28;20039;-78
2023/11/12 00:21:23;;;;;;;84.05;43.00;;;4.50;99.90;;;;;;4974030;28;20050;-82
2023/11/12 00:23:49;;;;;;;81.95;44.42;;;4.50;99.90;;;;;;5058050;28;20511;-77
2023/11/12 00:26:15;;;;;;;81.10;45.03;;;4.40;99.90;;;;;;4973901;28;20023;-83
2023/11/12 00:28:41;;;;;;;82.03;43.00;;;4.40;99.90;;;;;;4973866;28;20019;-82
2023/11/12 00:31:06;;;;;;;80.70;44.00;;;4.40;99.90;;;;;;4974199;28;20098;-83
2023/11/12 00:33:32;;;;;;;87.28;45.45;;;4.40;99.90;;;;;;5040460;28;20423;-77
2023/11/12 00:35:58;;;;;;;80.72;43.10;;;4.40;99.90;;;;;;4973746;28;20022;-77
2023/11/12 00:38:24;;;;;;;79.68;43.75;;;4.40;99.90;;;;;;5039480;28;20074;-81
2023/11/12 00:40:50;;;;;;;77.25;42.53;;;4.30;99.90;;;;;;5002997;28;20027;-81
2023/11/12 00:43:16;;;;;;;77.03;42.50;;;4.40;99.90;;;;;;5035452;28;20015;-77
2023/11/12 00:45:41;;;;;;;77.03;43.40;;;4.30;99.90;;;;;;4970504;28;20297;-76
2023/11/12 00:48:08;;;;;;;76.93;42.90;;;4.30;99.90;;;;;;5035845;28;20022;-77
2023/11/12 00:50:34;;;;;;;77.95;41.83;;;4.30;99.90;;;;;;5008188;28;20045;-82
2023/11/12 00:53:00;;;;;;;82.50;41.90;;;4.30;99.90;;;;;;4973555;28;20023;-77
2023/11/12 00:55:26;;;;;;;81.25;42.63;;;4.40;99.90;;;;;;5040824;28;20029;-77
2023/11/12 00:57:52;;;;;;;87.82;43.50;;;4.30;99.90;;;;;;5038052;28;20039;-82
2023/11/12 01:00:17;;;;;;;73.85;39.03;;;4.30;99.90;;;;;;5038888;28;20152;-77
2023/11/12 01:02:43;;;;;;;87.28;43.30;;;4.20;99.90;;;;;;5040071;28;20403;-77
2023/11/12 01:05:09;;;;;;;79.57;41.47;;;4.20;99.90;;;;;;4973202;28;20490;-77
2023/11/12 01:07:38;;;;;;;81.05;41.97;;;4.20;99.90;;;;;;5039840;28;20021;-77
2023/11/12 01:10:06;;;;;;;81.93;43.03;;;4.20;99.90;;;;;;5039730;28;20101;-76
2023/11/12 01:12:32;;;;;;;81.25;43.30;;;4.20;99.90;;;;;;4971848;28;20389;-76
2023/11/12 01:14:58;;;;;;;76.22;41.17;;;4.10;99.90;;;;;;5038396;28;20030;-76
2023/11/12 01:17:23;;;;;;;77.18;42.30;;;4.10;99.90;;;;;;4973284;28;20042;-76
2023/11/12 01:19:49;;;;;;;80.35;42.47;;;4.10;99.90;;;;;;5023660;28;20502;-76
2023/11/12 01:22:16;;;;;;;76.85;41.40;;;4.10;99.90;;;;;;4973127;28;20480;-81
2023/11/12 01:24:41;;;;;;;76.80;41.95;;;4.10;99.90;;;;;;5040181;28;20518;-76
2023/11/12 01:27:07;;;;;;;73.55;38.80;;;4.10;99.90;;;;;;5039860;28;20015;-76
2023/11/12 01:29:33;;;;;;;76.38;42.03;;;4.10;99.90;;;;;;5027009;28;20392;-82
2023/11/12 01:31:58;;;;;;;80.45;39.65;;;4.10;99.90;;;;;;4971331;28;20098;-77
2023/11/12 01:34:24;;;;;;;76.47;39.08;;;4.10;99.90;;;;;;5039569;28;20169;-82
2023/11/12 01:36:50;;;;;;;75.80;40.80;;;4.10;99.90;;;;;;4972954;28;20590;-76
2023/11/12 01:39:16;;;;;;;70.72;38.25;;;4.10;99.90;;;;;;5039427;28;20431;-76
2023/11/12 01:41:41;;;;;;;74.68;39.67;;;4.10;99.90;;;;;;5039417;28;20023;-76
2023/11/12 01:44:07;;;;;;;67.55;36.63;;;4.00;99.90;;;;;;5039611;28;20042;-82
2023/11/12 01:46:34;;;;;;;72.28;37.75;;;4.00;99.90;;;;;;4972389;28;20022;-81
2023/11/12 01:49:01;;;;;;;71.00;35.63;;;3.90;99.90;;;;;;5037907;28;20023;-77
2023/11/12 01:51:29;;;;;;;61.78;35.05;;;4.00;99.90;;;;;;4970752;28;20030;-82
2023/11/12 01:53:56;;;;;;;72.60;37.05;;;4.00;99.90;;;;;;5039404;28;20030;-82
2023/11/12 01:56:22;;;;;;;68.15;37.55;;;4.00;99.90;;;;;;4972450;28;20023;-82
2023/11/12 01:58:51;;;;;;;70.10;37.17;;;4.00;99.90;;;;;;4972282;28;20039;-82
2023/11/12 02:01:17;;;;;;;67.95;35.40;;;4.00;99.90;;;;;;4969718;28;20015;-76
2023/11/12 02:03:43;;;;;;;62.88;34.92;;;4.00;99.90;;;;;;4969954;28;20122;-81
2023/11/12 02:06:12;;;;;;;66.53;33.05;;;4.00;99.90;;;;;;4970183;28;20106;-76
2023/11/12 02:08:40;;;;;;;63.13;34.60;;;4.00;99.90;;;;;;5037174;28;20476;-76
2023/11/12 02:11:09;;;;;;;62.25;32.78;;;3.90;99.90;;;;;;5037198;28;20113;-76
2023/11/12 02:13:41;;;;;;;61.08;32.83;;;3.90;99.90;;;;;;5019308;28;20102;-76
2023/11/12 02:16:07;;;;;;;61.35;34.28;;;4.00;99.90;;;;;;5036509;28;20621;-76
2023/11/12 02:18:33;;;;;;;59.53;32.55;;;3.90;99.90;;;;;;4969579;28;20057;-81
2023/11/12 02:20:58;;;;;;;62.47;32.78;;;3.90;99.90;;;;;;4970663;28;20077;-81
2023/11/12 02:23:24;;;;;;;66.93;33.80;;;3.90;99.90;;;;;;4970154;28;20030;-76
2023/11/12 02:25:51;;;;;;;66.45;36.10;;;3.90;99.90;;;;;;4970311;28;20053;-76
2023/11/12 02:28:19;;;;;;;63.75;35.30;;;3.90;99.90;;;;;;5034894;28;20015;-81
2023/11/12 02:30:45;;;;;;;61.75;33.80;;;3.90;99.90;;;;;;5014877;28;20023;-81
2023/11/12 02:33:11;;;;;;;67.13;34.42;;;3.90;99.90;;;;;;4972059;28;20416;-81
2023/11/12 02:35:42;;;;;;;64.55;33.42;;;3.90;99.90;;;;;;5038284;28;20029;-81
2023/11/12 02:38:10;;;;;;;55.85;31.48;;;3.90;99.90;;;;;;4970119;28;20551;-76
2023/11/12 02:40:36;;;;;;;65.07;33.30;;;3.90;99.90;;;;;;5030976;28;20476;-81
2023/11/12 02:43:03;;;;;;;64.82;35.25;;;3.90;99.90;;;;;;5037028;28;20168;-81
2023/11/12 02:45:29;;;;;;;59.95;30.55;;;3.90;99.90;;;;;;4969977;28;20068;-82
2023/11/12 02:47:56;;;;;;;62.08;31.58;;;3.90;99.90;;;;;;5034848;28;20038;-76
2023/11/12 02:50:32;;;;;;;58.75;32.08;;;3.90;99.90;;;;;;5034722;28;20042;-82
2023/11/12 02:53:01;;;;;;;63.72;32.53;;;3.90;99.90;;;;;;4970234;28;20027;-81
2023/11/12 02:55:28;;;;;;;53.22;29.85;;;3.90;99.90;;;;;;4969985;28;20105;-76
2023/11/12 02:57:53;;;;;;;60.10;30.63;;;3.90;99.90;;;;;;4971350;28;20039;-81
2023/11/12 03:00:19;;;;;;;58.38;32.78;;;3.90;99.90;;;;;;4968404;28;20026;-82
2023/11/12 03:02:46;;;;;;;59.90;31.50;;;3.90;99.90;;;;;;5016771;28;20051;-82
2023/11/12 03:05:14;;;;;;;56.47;27.60;;;3.90;99.90;;;;;;5032124;28;20026;-81
2023/11/12 03:07:41;;;;;;;60.17;29.02;;;3.90;99.90;;;;;;5011757;28;20027;-77
2023/11/12 03:10:08;;;;;;;57.22;27.98;;;3.90;99.90;;;;;;5032462;28;20061;-81
2023/11/12 03:12:40;;;;;;;52.15;26.70;;;3.90;99.90;;;;;;4969726;28;20011;-77
2023/11/12 03:15:07;;;;;;;56.93;30.47;;;3.90;99.90;;;;;;4974431;28;20011;-82
2023/11/12 03:17:34;;;;;;;61.28;28.92;;;3.80;99.90;;;;;;4971581;28;20035;-77
2023/11/12 03:20:00;;;;;;;56.97;28.73;;;3.80;99.90;;;;;;5030081;28;20431;-81
2023/11/12 03:22:26;;;;;;;61.13;27.85;;;3.80;99.90;;;;;;4967416;28;20027;-82
2023/11/12 03:24:52;;;;;;;54.08;28.25;;;3.80;99.90;;;;;;5022567;28;20054;-77
2023/11/12 03:27:19;;;;;;;62.20;29.75;;;3.80;99.90;;;;;;4966504;28;20050;-77
2023/11/12 03:29:45;;;;;;;59.15;30.48;;;3.80;99.90;;;;;;5037476;28;20069;-76
2023/11/12 03:32:11;;;;;;;59.63;29.38;;;3.80;99.90;;;;;;5015369;28;20491;-76
2023/11/12 03:34:37;;;;;;;66.45;30.52;;;3.80;99.90;;;;;;5053636;28;20027;-82
2023/11/12 03:37:03;;;;;;;67.60;30.23;;;3.80;99.90;;;;;;5047407;28;20029;-77
2023/11/12 03:39:29;;;;;;;63.08;28.98;;;3.70;99.90;;;;;;4969607;28;20472;-76
2023/11/12 03:41:55;;;;;;;74.97;32.13;;;3.80;99.90;;;;;;4969053;28;20019;-77
2023/11/12 03:44:21;;;;;;;71.20;31.08;;;3.70;99.90;;;;;;5035411;28;20054;-83
2023/11/12 03:46:47;;;;;;;68.25;30.33;;;3.70;99.90;;;;;;4969465;28;20099;-83
2023/11/12 03:49:12;;;;;;;65.25;30.13;;;3.70;99.90;;;;;;4969064;28;20030;-78
2023/11/12 03:51:38;;;;;;;75.72;33.78;;;3.70;99.90;;;;;;4969324;28;20019;-83
2023/11/12 03:54:04;;;;;;;89.57;33.42;;;3.70;99.90;;;;;;5036001;28;20130;-78
2023/11/12 03:56:30;;;;;;;90.90;33.95;;;3.70;99.90;;;;;;5035683;28;20476;-77
2023/11/12 03:58:57;;;;;;;81.80;32.70;;;3.70;99.90;;;;;;4968128;28;20059;-83
2023/11/12 04:01:23;;;;;;;75.45;31.38;;;3.60;99.90;;;;;;4975333;28;20031;-83
2023/11/12 04:03:49;;;;;;;83.85;34.08;;;3.70;99.90;;;;;;5034464;28;20019;-78
2023/11/12 04:06:16;;;;;;;87.97;33.42;;;3.70;99.90;;;;;;5034359;28;20038;-83
2023/11/12 04:08:42;;;;;;;70.53;31.75;;;3.70;99.90;;;;;;4967233;28;20054;-82
2023/11/12 04:11:08;;;;;;;69.15;29.25;;;3.70;99.90;;;;;;5052169;28;20054;-82
2023/11/12 04:13:34;;;;;;;62.83;28.38;;;3.70;99.90;;;;;;4970251;28;20060;-83
2023/11/12 04:16:00;;;;;;;62.75;26.27;;;3.60;99.90;;;;;;4969291;28;20030;-78
2023/11/12 04:18:25;;;;;;;52.80;23.45;;;3.60;99.90;;;;;;4968689;28;20114;-82
2023/11/12 04:20:51;;;;;;;47.17;22.17;;;3.60;99.90;;;;;;5035585;28;20443;-82
2023/11/12 04:23:17;;;;;;;48.55;23.00;;;3.60;99.90;;;;;;5026276;28;20030;-83
2023/11/12 04:25:45;;;;;;;36.33;19.40;;;3.60;99.90;;;;;;4966975;28;20019;-82
2023/11/12 04:28:11;;;;;;;37.40;19.60;;;3.60;99.90;;;;;;4967124;28;20015;-78
2023/11/12 04:30:37;;;;;;;41.47;19.88;;;3.60;99.90;;;;;;5031934;28;20511;-81
2023/11/12 04:33:02;;;;;;;40.50;21.30;;;3.70;99.90;;;;;;4967480;28;20030;-81
2023/11/12 04:35:29;;;;;;;38.95;19.45;;;3.60;99.90;;;;;;4967300;28;20027;-76
2023/11/12 04:37:55;;;;;;;33.83;17.98;;;3.70;99.90;;;;;;5033003;28;20389;-81
2023/11/12 04:40:22;;;;;;;39.13;19.15;;;3.70;99.90;;;;;;4967277;28;20085;-81
2023/11/12 04:42:48;;;;;;;29.27;15.27;;;3.70;99.90;;;;;;4968217;28;20038;-76
2023/11/12 04:45:14;;;;;;;28.90;13.70;;;3.70;99.90;;;;;;5033328;28;20019;-81
2023/11/12 04:47:40;;;;;;;22.42;11.00;;;3.70;99.90;;;;;;4970149;28;20027;-81
2023/11/12 04:50:06;;;;;;;20.40;11.98;;;3.60;99.90;;;;;;4970707;28;20038;-76
2023/11/12 04:52:32;;;;;;;20.83;11.07;;;3.60;99.90;;;;;;4968549;28;20052;-76
2023/11/12 04:54:57;;;;;;;17.02;10.35;;;3.60;99.90;;;;;;4968619;28;20501;-81
2023/11/12 04:57:23;;;;;;;11.93;7.50;;;3.50;99.90;;;;;;4971146;28;20015;-76
2023/11/12 04:59:49;;;;;;;14.18;8.52;;;3.50;99.90;;;;;;5036966;28;20050;-81
2023/11/12 05:02:14;;;;;;;12.45;7.20;;;3.50;99.90;;;;;;5036425;28;20138;-82
2023/11/12 05:04:44;;;;;;;12.02;7.82;;;3.40;99.90;;;;;;5004248;28;20035;-76
2023/11/12 05:07:10;;;;;;;10.10;6.47;;;3.50;99.90;;;;;;5024519;28;20027;-77
2023/11/12 05:09:36;;;;;;;12.05;6.88;;;3.50;99.90;;;;;;5038367;28;20015;-76
2023/11/12 05:12:02;;;;;;;9.70;6.40;;;3.50;99.90;;;;;;4971485;28;20034;-82
2023/11/12 05:14:27;;;;;;;9.35;5.75;;;3.50;99.90;;;;;;5039953;28;20135;-77
2023/11/12 05:16:53;;;;;;;8.50;6.07;;;3.50;99.90;;;;;;4971764;28;20121;-78
2023/11/12 05:19:19;;;;;;;12.40;5.88;;;3.50;99.90;;;;;;4968837;28;20039;-81
2023/11/12 05:21:48;;;;;;;12.40;5.57;;;3.50;99.90;;;;;;5039694;28;20433;-77
2023/11/12 05:24:13;;;;;;;9.40;5.95;;;3.50;99.90;;;;;;5036693;28;20025;-82
2023/11/12 05:26:42;;;;;;;10.98;5.75;;;3.40;99.90;;;;;;4969602;28;20031;-76
2023/11/12 05:29:08;;;;;;;5.32;3.88;;;3.40;99.90;;;;;;4967134;28;20019;-77
2023/11/12 05:31:35;;;;;;;4.28;3.65;;;3.40;99.90;;;;;;4974352;28;20073;-77
2023/11/12 05:34:01;;;;;;;6.57;4.60;;;3.40;99.90;;;;;;5038023;28;20015;-76
2023/11/12 05:36:27;;;;;;;5.88;4.18;;;3.40;99.90;;;;;;4970972;28;20030;-77
2023/11/12 05:38:53;;;;;;;4.68;4.22;;;3.40;99.90;;;;;;5021496;28;20035;-82
2023/11/12 05:41:18;;;;;;;5.82;4.57;;;3.40;99.90;;;;;;4971634;28;20023;-82
2023/11/12 05:43:45;;;;;;;5.35;3.60;;;3.40;99.90;;;;;;4989502;28;20034;-77
2023/11/12 05:46:11;;;;;;;6.20;3.97;;;3.40;99.90;;;;;;5034435;28;20023;-81
2023/11/12 05:48:36;;;;;;;4.82;4.18;;;3.40;99.90;;;;;;5039645;28;20023;-77
2023/11/12 05:51:02;;;;;;;5.95;4.18;;;3.40;99.90;;;;;;5043568;28;20029;-82
2023/11/12 05:53:28;;;;;;;7.38;4.95;;;3.40;99.90;;;;;;5039401;28;20023;-81
2023/11/12 05:55:54;;;;;;;7.60;4.97;;;3.40;99.90;;;;;;4973015;28;20021;-78
2023/11/12 05:58:20;;;;;;;7.70;5.57;;;3.40;99.90;;;;;;4971806;28;20039;-81
2023/11/12 06:00:46;;;;;;;7.50;5.35;;;3.50;99.90;;;;;;5039457;28;20026;-77
2023/11/12 06:03:12;;;;;;;7.88;5.18;;;3.50;99.90;;;;;;5000997;28;20037;-81
2023/11/12 06:05:38;;;;;;;7.50;5.07;;;3.50;99.90;;;;;;4972533;28;20105;-77
2023/11/12 06:08:04;;;;;;;9.07;5.72;;;3.50;99.90;;;;;;5039308;28;20027;-77
2023/11/12 06:10:30;;;;;;;9.75;6.38;;;3.60;99.90;;;;;;5039217;28;20023;-80
2023/11/12 06:12:56;;;;;;;13.68;6.82;;;3.60;99.90;;;;;;4972421;28;20037;-76
2023/11/12 06:15:26;;;;;;;9.45;6.55;;;3.60;99.90;;;;;;5039127;28;20049;-80
2023/11/12 06:17:55;;;;;;;10.50;6.40;;;3.70;99.90;;;;;;4972549;28;20035;-76
2023/11/12 06:20:21;;;;;;;9.38;6.95;;;3.70;99.90;;;;;;5039164;28;20030;-77
2023/11/12 06:22:46;;;;;;;9.60;6.53;;;3.70;99.90;;;;;;5038858;28;20121;-82
2023/11/12 06:25:12;;;;;;;12.90;6.88;;;3.70;99.90;;;;;;4972520;28;20022;-80
2023/11/12 06:27:39;;;;;;;8.45;6.22;;;3.70;99.90;;;;;;5038873;28;20100;-77
2023/11/12 06:30:05;;;;;;;8.52;5.90;;;3.70;99.90;;;;;;4972262;28;20126;-76
2023/11/12 06:32:31;;;;;;;9.57;5.97;;;3.70;99.90;;;;;;4972248;28;20019;-81
2023/11/12 06:34:56;;;;;;;10.77;6.60;;;3.70;99.90;;;;;;5039190;28;20026;-76
2023/11/12 06:37:22;;;;;;;13.38;7.38;;;3.70;99.90;;;;;;5038132;28;20076;-76
2023/11/12 06:39:48;;;;;;;11.95;7.10;;;3.70;99.90;;;;;;5038108;28;20035;-76
2023/11/12 06:42:14;;;;;;;11.40;6.60;;;3.70;99.90;;;;;;5035756;28;20023;-76
2023/11/12 06:44:40;;;;;;;10.43;6.40;;;3.60;99.90;;;;;;4971544;28;20026;-76
2023/11/12 06:47:06;;;;;;;16.70;7.97;;;3.60;99.90;;;;;;4970038;28;20026;-76
2023/11/12 06:49:32;;;;;;;12.98;7.72;;;3.70;99.90;;;;;;4971894;28;20098;-77
2023/11/12 06:51:58;;;;;;;15.55;7.75;;;3.70;99.90;;;;;;5036701;28;20065;-81
2023/11/12 06:54:24;;;;;;;13.68;8.15;;;3.70;99.90;;;;;;4971640;28;20050;-81
2023/11/12 06:56:51;;;;;;;12.88;7.43;;;3.70;99.90;;;;;;5038180;28;20596;-81
2023/11/12 06:59:16;;;;;;;13.43;8.00;;;3.70;99.90;;;;;;4971447;28;20046;-81
2023/11/12 07:01:42;;;;;;;13.40;7.93;;;3.70;99.90;;;;;;5037991;28;20416;-81
2023/11/12 07:04:10;;;;;;;13.65;9.10;;;3.80;99.90;;;;;;5038311;28;20463;-77
2023/11/12 07:06:36;;;;;;;12.40;7.30;;;3.70;99.90;;;;;;5037262;28;20033;-76
2023/11/12 07:09:02;;;;;;;15.15;9.18;;;3.80;99.90;;;;;;5037924;28;20445;-77
2023/11/12 07:11:28;;;;;;;13.63;7.43;;;3.70;99.90;;;;;;5038125;28;20023;-81
2023/11/12 07:13:53;;;;;;;15.07;8.30;;;3.80;99.90;;;;;;4971376;28;20110;-82
2023/11/12 07:16:20;;;;;;;17.63;10.40;;;3.80;99.90;;;;;;5038290;28;20133;-81
2023/11/12 07:18:46;;;;;;;19.20;10.85;;;3.80;99.90;;;;;;5037661;28;20034;-76
2023/11/12 07:21:12;;;;;;;21.65;10.68;;;3.80;99.90;;;;;;5038135;28;20503;-81
2023/11/12 07:23:38;;;;;;;17.90;10.52;;;3.80;99.90;;;;;;5037509;28;20022;-81
2023/11/12 07:26:05;;;;;;;20.42;11.38;;;3.80;99.90;;;;;;5037321;28;20049;-77
2023/11/12 07:28:31;;;;;;;21.08;11.93;;;3.80;99.90;;;;;;5034253;28;20031;-77
2023/11/12 07:30:57;;;;;;;23.52;12.30;;;3.80;99.90;;;;;;5033964;28;20511;-77
2023/11/12 07:33:22;;;;;;;21.60;12.65;;;3.90;99.90;;;;;;5030245;28;20027;-77
2023/11/12 07:35:49;;;;;;;21.27;11.85;;;3.90;99.90;;;;;;5037526;28;20034;-77
2023/11/12 07:38:15;;;;;;;20.50;11.93;;;3.90;99.90;;;;;;5037707;28;20041;-77
2023/11/12 07:40:44;;;;;;;22.27;12.20;;;3.90;99.90;;;;;;5037205;28;20027;-78
2023/11/12 07:43:09;;;;;;;23.85;13.75;;;3.90;99.90;;;;;;4969506;28;20494;-78
2023/11/12 07:45:35;;;;;;;25.60;13.18;;;4.00;99.90;;;;;;4970659;28;20054;-78
2023/11/12 07:48:01;;;;;;;22.35;13.60;;;4.00;99.90;;;;;;4970650;28;20076;-78
2023/11/12 07:50:28;;;;;;;23.50;12.80;;;4.10;99.90;;;;;;5037484;28;20029;-78
2023/11/12 07:52:53;;;;;;;23.25;13.98;;;4.00;99.90;;;;;;4970871;28;20038;-78
2023/11/12 07:55:19;;;;;;;24.02;13.48;;;4.00;99.90;;;;;;5035600;28;20019;-78
2023/11/12 07:57:45;;;;;;;26.25;12.65;;;4.00;99.90;;;;;;5036965;28;20101;-78
2023/11/12 08:00:13;;;;;;;24.75;14.25;;;4.00;99.90;;;;;;5037228;28;20030;-78
2023/11/12 08:02:39;;;;;;;20.00;12.75;;;3.90;99.90;;;;;;5035406;28;20073;-78
2023/11/12 08:05:08;;;;;;;22.15;13.55;;;3.90;99.90;;;;;;4968938;28;20026;-78
2023/11/12 08:07:37;;;;;;;18.70;11.30;;;3.80;99.90;;;;;;5035845;28;20497;-77
2023/11/12 08:10:04;;;;;;;22.38;12.57;;;3.90;99.90;;;;;;4968156;28;20077;-77
2023/11/12 08:12:31;;;;;;;22.85;12.32;;;3.90;99.90;;;;;;5033453;28;20035;-77
2023/11/12 08:14:57;;;;;;;21.45;12.25;;;3.90;99.90;;;;;;4967069;28;20080;-77
2023/11/12 08:17:23;;;;;;;17.85;11.10;;;3.90;99.90;;;;;;5034813;28;20035;-77
2023/11/12 08:19:48;;;;;;;19.52;11.18;;;3.90;99.90;;;;;;5034300;28;20033;-77
2023/11/12 08:22:14;;;;;;;21.25;12.77;;;3.90;99.90;;;;;;5038023;28;20026;-77
2023/11/12 08:24:40;;;;;;;23.88;12.90;;;3.90;99.90;;;;;;4976862;28;20027;-76
2023/11/12 08:27:07;;;;;;;18.17;12.00;;;4.00;99.90;;;;;;4974855;28;20038;-77
2023/11/12 08:29:34;;;;;;;20.48;11.63;;;3.90;99.90;;;;;;4972491;28;20118;-77
2023/11/12 08:32:00;;;;;;;19.80;12.68;;;4.00;99.90;;;;;;5006785;28;20023;-78
2023/11/12 08:34:26;;;;;;;18.55;11.73;;;4.10;99.90;;;;;;5038981;28;20035;-77
2023/11/12 08:36:52;;;;;;;63.13;30.02;;;4.10;99.90;;;;;;5039335;28;20484;-77
2023/11/12 08:39:18;;;;;;;43.60;23.80;;;4.10;99.90;;;;;;5042396;28;20114;-77
2023/11/12 08:41:46;;;;;;;73.40;37.42;;;4.20;99.90;;;;;;5039686;28;20169;-77
2023/11/12 08:44:13;;;;;;;162.15;77.70;;;4.30;99.90;;;;;;5044239;28;20053;-77
2023/11/12 08:46:39;;;;;;;120.40;55.88;;;4.30;99.90;;;;;;5040182;28;20068;-78
2023/11/12 08:49:06;;;;;;;172.30;80.07;;;4.40;99.90;;;;;;5040332;28;20054;-78
2023/11/12 08:51:35;;;;;;;147.90;69.10;;;4.40;99.90;;;;;;4971686;28;20027;-77
2023/11/12 08:54:01;;;;;;;95.45;43.45;;;4.40;99.90;;;;;;4972860;28;20023;-77
2023/11/12 08:56:29;;;;;;;175.80;78.75;;;4.50;99.90;;;;;;4972014;28;20035;-76
2023/11/12 08:58:56;;;;;;;149.38;64.22;;;4.50;99.90;;;;;;5034728;28;20035;-78
2023/11/12 09:01:21;;;;;;;129.50;58.08;;;4.50;99.90;;;;;;5010364;28;20160;-78
2023/11/12 09:03:47;;;;;;;142.73;60.22;;;4.60;99.90;;;;;;4972751;28;20023;-77
2023/11/12 09:06:13;;;;;;;12.98;8.57;;;4.60;99.90;;;;;;5039342;28;20481;-77
2023/11/12 09:08:38;;;;;;;15.40;9.30;;;4.60;99.90;;;;;;5036747;28;20026;-77
2023/11/12 09:11:04;;;;;;;16.85;8.52;;;4.70;99.90;;;;;;5035277;28;20030;-77
2023/11/12 09:13:29;;;;;;;17.77;10.50;;;4.70;99.90;;;;;;5035861;28;20029;-77
2023/11/12 09:15:55;;;;;;;49.60;25.23;;;4.70;99.90;;;;;;5029672;28;20030;-77
2023/11/12 09:18:22;;;;;;;45.65;23.45;;;4.80;99.90;;;;;;5039659;28;20047;-78
2023/11/12 09:20:48;;;;;;;37.38;18.65;;;4.90;99.90;;;;;;5038883;28;20031;-77
2023/11/12 09:23:13;;;;;;;39.72;20.30;;;5.00;99.90;;;;;;5039122;28;20164;-77
2023/11/12 09:25:40;;;;;;;12.00;8.38;;;5.10;99.90;;;;;;5039743;28;20027;-77
2023/11/12 09:28:06;;;;;;;21.73;12.10;;;5.10;99.90;;;;;;4972662;28;20027;-77
2023/11/12 09:30:34;;;;;;;23.17;13.25;;;5.20;99.90;;;;;;5039733;28;20014;-77
2023/11/12 09:33:00;;;;;;;27.38;14.70;;;5.30;99.90;;;;;;5038146;28;20023;-77
2023/11/12 09:35:25;;;;;;;28.02;14.43;;;5.30;99.90;;;;;;5039618;28;20511;-78
2023/11/12 09:37:51;;;;;;;23.65;15.00;;;5.30;99.90;;;;;;5038466;28;20039;-78
2023/11/12 09:40:17;;;;;;;37.38;19.60;;;5.30;99.90;;;;;;5039629;28;20023;-77
2023/11/12 09:42:53;;;;;;;40.83;23.33;;;5.30;99.90;;;;;;4972105;28;20378;-78
2023/11/12 09:45:19;;;;;;;35.80;19.58;;;5.20;99.90;;;;;;5036541;28;20048;-77
2023/11/12 09:47:46;;;;;;;19.20;13.32;;;5.20;99.90;;;;;;5039007;28;20031;-77
2023/11/12 09:50:12;;;;;;;21.10;14.82;;;5.10;99.90;;;;;;5039426;28;20062;-77
2023/11/12 09:52:38;;;;;;;25.63;19.45;;;5.20;99.90;;;;;;5038938;28;20369;-77
2023/11/12 09:55:06;;;;;;;20.40;14.82;;;5.10;99.90;;;;;;5039250;28;20465;-77
2023/11/12 09:57:32;;;;;;;19.83;12.00;;;5.10;99.90;;;;;;4971027;28;20117;-77
2023/11/12 09:59:58;;;;;;;81.45;41.65;;;5.20;99.90;;;;;;4959222;28;20023;-76
2023/11/12 10:02:26;;;;;;;17.52;11.52;;;5.30;99.90;;;;;;4979514;28;20054;-76
2023/11/12 10:04:59;;;;;;;72.78;36.10;;;5.30;99.90;;;;;;5038737;28;20034;-76
2023/11/12 10:07:24;;;;;;;;;;;5.30;99.90;;;;;;4972823;28;20037;-77
2023/11/12 10:09:51;;;;;;;82.80;34.50;;;5.30;99.90;;;;;;4971353;28;19918;-76
2023/11/12 10:12:16;;;;;;;123.70;50.30;;;5.50;99.90;;;;;;5038755;28;20026;-76
2023/11/12 10:14:43;;;;;;;143.20;57.95;;;5.60;99.90;;;;;;5038972;28;20455;-77
2023/11/12 10:17:11;;;;;;;24.52;12.93;;;5.60;99.90;;;;;;5038662;28;20026;-76
2023/11/12 10:19:40;;;;;;;177.30;72.63;;;5.50;99.90;;;;;;5038718;28;20042;-76
2023/11/12 10:22:09;;;;;;;210.75;77.82;;;5.60;99.90;;;;;;5038783;28;20030;-77
2023/11/12 10:24:45;;;;;;;146.65;58.03;;;5.60;99.90;;;;;;4971726;28;20480;-77
2023/11/12 10:27:12;;;;;;;104.82;46.50;;;5.60;99.90;;;;;;5038439;28;20033;-77
2023/11/12 10:29:43;;;;;;;188.15;76.93;;;5.70;99.90;;;;;;5038893;28;20498;-77
2023/11/12 10:32:24;;;;;;;49.13;22.75;;;5.70;99.90;;;;;;4971750;28;20416;-77
2023/11/12 10:34:50;;;;;;;35.30;16.73;;;5.70;99.90;;;;;;5037889;28;20027;-76
2023/11/12 10:37:17;;;;;;;84.25;34.60;;;5.70;99.90;;;;;;5038594;28;20019;-77
2023/11/12 10:39:46;;;;;;;61.63;29.05;;;5.70;99.90;;;;;;4971511;28;20489;-77
2023/11/12 10:42:20;;;;;;;20.75;11.57;;;5.80;99.90;;;;;;5037900;28;20473;-76
2023/11/12 10:44:57;;;;;;;92.40;43.05;;;5.80;99.90;;;;;;5037739;28;20045;-76
2023/11/12 10:47:24;;;;;;;59.60;31.25;;;5.90;99.90;;;;;;5037127;28;20076;-77
2023/11/12 10:49:51;;;;;;;49.45;22.77;;;6.00;99.90;;;;;;5038475;28;20015;-77
2023/11/12 10:52:18;;;;;;;45.30;19.05;;;6.00;99.90;;;;;;4971570;28;20477;-76
2023/11/12 10:54:45;;;;;;;18.25;11.43;;;6.00;99.90;;;;;;5038234;28;20015;-77
2023/11/12 10:57:13;;;;;;;27.05;15.60;;;6.00;99.90;;;;;;5036861;28;20030;-77
2023/11/12 10:59:40;;;;;;;20.98;14.93;;;6.00;99.90;;;;;;5034942;28;20084;-77
2023/11/12 11:02:15;;;;;;;46.47;27.75;;;6.00;99.90;;;;;;5037904;28;20062;-77
2023/11/12 11:04:45;;;;;;;42.53;18.27;;;5.90;99.90;;;;;;4971633;28;20051;-78
2023/11/12 11:07:12;;;;;;;25.85;12.75;;;6.00;99.90;;;;;;5032169;28;20488;-77
2023/11/12 11:09:38;;;;;;;23.67;13.80;;;5.90;99.90;;;;;;4969779;28;20019;-76
2023/11/12 11:12:04;;;;;;;23.73;13.55;;;5.90;99.90;;;;;;5035519;28;20462;-76
2023/11/12 11:14:30;;;;;;;27.20;16.00;;;5.90;99.90;;;;;;5030543;28;20030;-76
2023/11/12 11:16:57;;;;;;;19.65;13.48;;;6.00;99.90;;;;;;5030505;28;20030;-76
2023/11/12 11:19:43;;;;;;;50.50;23.52;;;5.90;99.90;;;;;;5028817;28;20549;-77
2023/11/12 11:22:29;;;;;;;27.27;13.40;;;6.00;99.90;;;;;;5033534;28;20067;-78
2023/11/12 11:25:22;;;;;;;27.23;12.57;;;6.10;99.90;;;;;;4969119;28;20031;-78
2023/11/12 11:28:17;;;;;;;125.90;53.83;;;6.20;99.90;;;;;;5026974;28;20195;-78
2023/11/12 11:31:10;;;;;;;334.85;132.77;;;6.40;99.90;;;;;;4968963;28;20400;-77
2023/11/12 11:33:50;;;;;;;270.65;110.05;;;6.50;99.90;;;;;;5046658;28;20030;-78
2023/11/12 11:36:18;;;;;;;168.98;68.10;;;6.50;99.90;;;;;;5034889;28;20484;-78
2023/11/12 11:39:10;;;;;;;199.00;77.55;;;6.40;99.90;;;;;;4969312;28;20055;-77
2023/11/12 11:41:58;;;;;;;263.10;98.95;;;6.20;99.90;;;;;;5034496;28;20015;-76
2023/11/12 11:44:37;;;;;;;357.45;134.70;;;6.10;99.90;;;;;;4969444;28;20068;-76
2023/11/12 11:47:15;;;;;;;249.55;92.13;;;6.00;99.90;;;;;;5034530;28;20043;-76
2023/11/12 11:49:45;;;;;;;57.97;27.67;;;6.00;99.90;;;;;;5028390;28;20023;-76
2023/11/12 11:52:26;;;;;;;495.33;182.68;;;5.90;99.90;;;;;;5043346;28;20069;-77
2023/11/12 11:54:59;;;;;;;39.33;15.18;;;6.00;99.90;;;;;;5036069;28;20097;-76
2023/11/12 11:57:26;;;;;;;52.15;17.75;;;5.90;99.90;;;;;;5035341;28;20035;-77
2023/11/12 11:59:57;;;;;;;84.72;39.17;;;5.90;99.90;;;;;;5035826;28;20026;-76
2023/11/12 12:02:23;;;;;;;91.03;39.38;;;6.00;99.90;;;;;;5032712;28;20055;-77
2023/11/12 12:04:59;;;;;;;162.82;60.70;;;6.00;99.90;;;;;;4965116;28;20030;-76
2023/11/12 12:07:26;;;;;;;75.57;24.75;;;6.00;99.90;;;;;;5029801;28;20047;-76
2023/11/12 12:09:53;;;;;;;54.63;16.80;;;6.10;99.90;;;;;;5035110;28;20023;-77
2023/11/12 12:12:19;;;;;;;45.78;16.35;;;6.10;99.90;;;;;;5032017;28;20027;-76
2023/11/12 12:14:45;;;;;;;107.32;55.20;;;6.10;99.90;;;;;;5035302;28;20496;-76
2023/11/12 12:17:13;;;;;;;34.80;20.73;;;6.10;99.90;;;;;;5031431;28;20087;-76
2023/11/12 12:19:39;;;;;;;28.30;15.05;;;6.10;99.90;;;;;;5034541;28;20114;-76
2023/11/12 12:22:05;;;;;;;76.13;24.73;;;6.10;99.90;;;;;;5034689;28;20026;-76
2023/11/12 12:24:34;;;;;;;22.05;10.63;;;6.10;99.90;;;;;;5036117;28;20030;-76
2023/11/12 12:27:12;;;;;;;23.42;10.95;;;6.10;99.90;;;;;;5035993;28;20035;-76
2023/11/12 12:29:39;;;;;;;32.40;19.77;;;6.10;99.90;;;;;;5036400;28;20110;-75
2023/11/12 12:32:13;;;;;;;22.30;12.95;;;6.10;99.90;;;;;;5052002;28;20161;-76
2023/11/12 12:34:42;;;;;;;28.13;15.82;;;6.10;99.90;;;;;;5034503;28;20478;-76
2023/11/12 12:37:09;;;;;;;57.08;21.15;;;6.20;99.90;;;;;;5029555;28;20149;-76
2023/11/12 12:39:48;;;;;;;20.73;11.48;;;6.20;99.90;;;;;;4968884;28;20127;-76